Time;durP1;ratioP1;P1;durP2;ratioP2;P2;SDS_P1;SDS_P2;PMS_P1;PMS_P2;Temp;Humidity;BMP_temperature;BMP_pressure;BME280_temperature;BME280_humidity;BME280_pressure;Samples;Min_cycle;Max_cycle;Signal;HPM_P1;HPM_P2
2021/07/07 00:01:52;;;;;;;2.80;2.60;;;;;;;;;;3566671;40;20402;-72
2021/07/07 00:04:18;;;;;;;2.65;2.45;;;;;;;;;;3567193;40;20444;-71
2021/07/07 00:06:44;;;;;;;4.00;3.10;;;;;;;;;;3566598;40;20397;-71
2021/07/07 00:09:10;;;;;;;3.38;3.08;;;;;;;;;;3566133;40;20378;-72
2021/07/07 00:11:36;;;;;;;3.42;3.08;;;;;;;;;;3566329;40;20471;-71
2021/07/07 00:14:04;;;;;;;3.53;3.23;;;;;;;;;;3567129;40;20711;-72
2021/07/07 00:16:30;;;;;;;3.78;3.40;;;;;;;;;;3565849;40;20510;-70
2021/07/07 00:18:56;;;;;;;3.10;2.90;;;;;;;;;;3566893;40;20385;-72
2021/07/07 00:21:22;;;;;;;3.67;3.15;;;;;;;;;;3566505;40;20386;-72
2021/07/07 00:23:49;;;;;;;3.10;2.90;;;;;;;;;;3565821;40;20609;-71
2021/07/07 00:26:15;;;;;;;6.95;4.55;;;;;;;;;;3566746;40;20386;-73
2021/07/07 00:28:41;;;;;;;3.67;3.38;;;;;;;;;;3560588;40;20473;-71
2021/07/07 00:31:09;;;;;;;5.05;2.92;;;;;;;;;;3571636;40;20394;-71
2021/07/07 00:33:35;;;;;;;4.63;4.00;;;;;;;;;;3568281;40;20422;-73
2021/07/07 00:36:01;;;;;;;6.00;4.18;;;;;;;;;;3568280;40;20639;-71
2021/07/07 00:38:27;;;;;;;4.55;4.00;;;;;;;;;;3566491;40;20403;-76
2021/07/07 00:40:53;;;;;;;3.90;3.50;;;;;;;;;;3566467;40;20640;-71
2021/07/07 00:43:19;;;;;;;7.00;4.80;;;;;;;;;;3566706;40;20394;-71
2021/07/07 00:45:45;;;;;;;4.40;4.00;;;;;;;;;;3565698;40;20397;-71
2021/07/07 00:48:13;;;;;;;9.07;5.80;;;;;;;;;;3566650;40;20404;-71
2021/07/07 00:50:41;;;;;;;5.97;4.88;;;;;;;;;;3566404;40;20398;-71
2021/07/07 00:53:07;;;;;;;10.20;5.05;;;;;;;;;;3566739;40;20384;-72
2021/07/07 00:55:34;;;;;;;4.32;3.92;;;;;;;;;;3565083;40;20502;-71
2021/07/07 00:58:00;;;;;;;2.95;2.60;;;;;;;;;;3566269;40;20397;-72
2021/07/07 01:00:27;;;;;;;2.75;2.55;;;;;;;;;;3566735;40;20881;-68
2021/07/07 01:02:54;;;;;;;2.50;2.30;;;;;;;;;;3600788;23;20688;-69
2021/07/07 01:05:22;;;;;;;2.20;2.00;;;;;;;;;;3574436;40;20387;-69
2021/07/07 01:07:48;;;;;;;5.50;2.73;;;;;;;;;;3573185;40;20411;-69
2021/07/07 01:10:15;;;;;;;3.55;3.25;;;;;;;;;;3568087;40;20378;-69
2021/07/07 01:12:42;;;;;;;3.92;3.60;;;;;;;;;;3566875;40;20382;-69
2021/07/07 01:15:09;;;;;;;3.85;3.25;;;;;;;;;;3556083;40;20391;-69
2021/07/07 01:17:35;;;;;;;3.87;3.53;;;;;;;;;;3567743;40;20423;-69
2021/07/07 01:20:05;;;;;;;4.13;3.78;;;;;;;;;;3572194;40;20471;-69
2021/07/07 01:22:32;;;;;;;5.22;4.72;;;;;;;;;;3567871;40;20390;-72
2021/07/07 01:24:59;;;;;;;3.75;3.38;;;;;;;;;;3571588;40;20411;-72
2021/07/07 01:27:26;;;;;;;3.97;3.67;;;;;;;;;;3575490;40;20767;-72
2021/07/07 01:29:52;;;;;;;3.88;3.58;;;21.30;99.90;;;;;;3568597;40;20384;-72
2021/07/07 01:32:18;;;;;;;4.20;3.88;;;21.20;99.90;;;;;;3571350;40;20435;-72
2021/07/07 01:34:44;;;;;;;4.78;4.25;;;21.30;99.90;;;;;;3567961;40;20460;-72
2021/07/07 01:37:10;;;;;;;4.55;4.15;;;21.30;99.90;;;;;;3567801;40;20417;-72
2021/07/07 01:39:37;;;;;;;3.85;3.55;;;21.30;99.90;;;;;;3558355;40;20398;-72
2021/07/07 01:42:04;;;;;;;4.00;3.70;;;;;;;;;;3567481;40;20409;-72
2021/07/07 01:44:30;;;;;;;3.25;3.05;;;;;;;;;;3567253;40;20445;-72
2021/07/07 01:46:57;;;;;;;4.03;3.40;;;;;;;;;;3551890;40;20418;-71
2021/07/07 01:49:23;;;;;;;3.75;3.40;;;;;;;;;;3564482;40;20409;-70
2021/07/07 01:51:49;;;;;;;3.63;3.33;;;;;;;;;;3557419;40;20442;-71
2021/07/07 01:54:15;;;;;;;4.13;3.83;;;;;;;;;;3566497;40;20411;-71
2021/07/07 01:56:43;;;;;;;6.45;4.97;;;;;;;;;;3557120;40;20430;-70
2021/07/07 01:59:09;;;;;;;8.27;5.05;;;;;;;;;;3566084;40;20624;-69
2021/07/07 02:01:35;;;;;;;8.27;4.82;;;;;;;;;;3558337;40;20385;-69
2021/07/07 02:04:01;;;;;;;15.47;8.57;;;;;;;;;;3560923;40;20471;-69
2021/07/07 02:06:29;;;;;;;8.55;4.40;;;;;;;;;;3557407;40;20398;-70
2021/07/07 02:08:55;;;;;;;6.88;4.10;;;;;;;;;;3570415;40;20378;-71
2021/07/07 02:11:21;;;;;;;22.00;8.55;;;;;;;;;;3557669;40;20474;-72
2021/07/07 02:13:49;;;;;;;10.75;4.93;;;;;;;;;;3556832;40;20393;-71
2021/07/07 02:16:15;;;;;;;8.40;4.20;;;;;;;;;;3566063;40;20471;-71
2021/07/07 02:18:41;;;;;;;5.50;3.70;;;;;;;;;;3556454;40;20399;-71
2021/07/07 02:21:07;;;;;;;3.60;3.30;;;;;;;;;;3569538;40;20490;-66
2021/07/07 02:23:34;;;;;;;5.55;3.47;;;;;;;;;;3567175;40;20394;-66
2021/07/07 02:26:00;;;;;;;3.50;3.20;;;;;;;;;;3566890;40;20426;-66
2021/07/07 02:28:26;;;;;;;3.40;3.20;;;;;;;;;;3566941;40;20624;-66
2021/07/07 02:30:54;;;;;;;3.67;3.42;;;;;;;;;;3567473;40;20468;-66
2021/07/07 02:33:20;;;;;;;4.20;3.80;;;;;;;;;;3567272;40;20441;-66
2021/07/07 02:35:47;;;;;;;4.40;3.40;;;;;;;;;;3566940;40;20370;-66
2021/07/07 02:38:14;;;;;;;3.97;3.67;;;;;;;;;;3566870;40;20662;-65
2021/07/07 02:40:40;;;;;;;3.80;3.50;;;;;;;;;;3562925;40;20373;-65
2021/07/07 02:43:08;;;;;;;3.43;3.13;;;;;;;;;;3566918;40;20425;-65
2021/07/07 02:45:35;;;;;;;3.78;3.22;;;;;;;;;;3566892;40;20467;-66
2021/07/07 02:48:03;;;;;;;3.63;3.33;;;;;;;;;;3566910;40;20384;-66
2021/07/07 02:50:29;;;;;;;4.60;3.97;;;;;;;;;;3566670;40;20448;-66
2021/07/07 02:52:55;;;;;;;5.85;4.10;;;;;;;;;;3570613;40;20386;-66
2021/07/07 02:55:22;;;;;;;4.00;3.70;;;;;;;;;;3571675;40;20530;-65
2021/07/07 02:58:05;;;;;;;4.63;3.65;;;;;;;;;;3568786;40;20441;-66
2021/07/07 03:00:32;;;;;;;4.88;3.95;;;;;;;;;;3572125;40;20387;-73
2021/07/07 03:02:59;;;;;;;4.10;3.70;;;;;;;;;;3569925;40;20467;-73
2021/07/07 03:05:27;;;;;;;6.28;4.18;;;;;;;;;;3562870;40;20409;-72
2021/07/07 03:07:53;;;;;;;4.80;4.03;;;;;;;;;;3567802;40;20386;-72
2021/07/07 03:10:19;;;;;;;3.85;3.55;;;;;;;;;;3566652;40;20405;-73
2021/07/07 03:12:47;;;;;;;3.78;3.47;;;;;;;;;;3557729;40;20421;-72
2021/07/07 03:15:14;;;;;;;3.60;3.35;;;;;;;;;;3565262;40;20775;-72
2021/07/07 03:17:40;;;;;;;5.75;4.20;;;;;;;;;;3564725;40;20850;-73
2021/07/07 03:20:07;;;;;;;4.30;3.70;;;;;;;;;;3567218;40;20763;-72
2021/07/07 03:22:34;;;;;;;4.10;3.80;;;;;;;;;;3568090;40;20413;-72
2021/07/07 03:25:00;;;;;;;4.45;4.00;;;;;;;;;;3559930;40;20394;-72
2021/07/07 03:27:27;;;;;;;5.93;4.53;;;;;;;;;;3570664;40;20442;-72
2021/07/07 03:29:53;;;;;;;5.22;4.82;;;;;;;;;;3577522;40;20387;-72
2021/07/07 03:32:19;;;;;;;5.82;5.10;;;;;;;;;;3570541;40;20376;-73
2021/07/07 03:34:45;;;;;;;4.70;4.30;;;;;;;;;;3558964;40;20444;-73
2021/07/07 03:37:11;;;;;;;4.15;3.80;;;;;;;;;;3568119;40;20473;-73
2021/07/07 03:39:39;;;;;;;5.30;4.60;;;;;;;;;;3567750;40;20396;-73
2021/07/07 03:42:05;;;;;;;4.32;3.92;;;;;;;;;;3567642;40;20389;-72
2021/07/07 03:44:31;;;;;;;6.28;5.30;;;;;;;;;;3561734;40;20429;-72
2021/07/07 03:46:57;;;;;;;5.50;5.10;;;;;;;;;;3559544;40;20440;-72
2021/07/07 03:49:23;;;;;;;5.60;5.10;;;;;;;;;;3559500;40;20406;-72
2021/07/07 03:51:50;;;;;;;4.97;4.57;;;;;;;;;;3559234;40;20441;-74
2021/07/07 03:54:16;;;;;;;3.78;3.47;;;;;;;;;;3567457;40;20380;-73
2021/07/07 03:56:43;;;;;;;4.00;3.60;;;;;;;;;;3564766;40;20407;-73
2021/07/07 03:59:10;;;;;;;3.97;3.57;;;;;;;;;;3565231;40;20398;-73
2021/07/07 04:01:36;;;;;;;5.38;4.88;;;;;;;;;;3572658;40;20477;-72
2021/07/07 04:04:02;;;;;;;5.68;5.28;;;;;;;;;;3575267;40;20640;-72
2021/07/07 04:06:28;;;;;;;4.90;4.28;;;;;;;;;;3568446;40;20487;-73
2021/07/07 04:08:54;;;;;;;4.63;4.25;;;;;;;;;;3574179;40;20405;-71
2021/07/07 04:11:21;;;;;;;5.22;4.20;;;;;;;;;;3569268;40;20374;-73
2021/07/07 04:13:48;;;;;;;4.38;3.97;;;;;;;;;;3570520;40;20641;-73
2021/07/07 04:16:14;;;;;;;4.50;4.10;;;;;;;;;;3570826;40;20477;-73
2021/07/07 04:18:40;;;;;;;4.65;4.25;;;;;;;;;;3571281;40;20407;-73
2021/07/07 04:21:06;;;;;;;3.88;3.58;;;;;;;;;;3561234;40;20686;-73
2021/07/07 04:23:33;;;;;;;3.83;3.53;;;;;;;;;;3570578;40;20437;-73
2021/07/07 04:25:59;;;;;;;4.75;4.30;;;;;;;;;;3561963;40;20383;-72
2021/07/07 04:28:25;;;;;;;4.85;4.32;;;;;;;;;;3574343;40;20459;-72
2021/07/07 04:30:53;;;;;;;7.80;5.00;;;;;;;;;;3563150;40;20472;-72
2021/07/07 04:33:19;;;;;;;4.43;4.03;;;;;;;;;;3573068;40;20763;-72
2021/07/07 04:35:45;;;;;;;4.13;3.78;;;;;;;;;;3573352;40;20776;-72
2021/07/07 04:38:11;;;;;;;5.22;4.75;;;;;;;;;;3572490;40;20646;-72
2021/07/07 04:40:37;;;;;;;5.55;5.05;;;;;;;;;;3565167;40;20400;-73
2021/07/07 04:43:04;;;;;;;4.50;4.10;;;;;;;;;;3562541;40;20389;-73
2021/07/07 04:45:31;;;;;;;5.00;3.92;;;;;;;;;;3565324;40;20414;-73
2021/07/07 04:47:58;;;;;;;4.20;3.90;;;;;;;;;;3563442;40;20393;-73
2021/07/07 04:50:25;;;;;;;8.63;4.85;;;;;;;;;;3575513;40;20379;-73
2021/07/07 04:52:51;;;;;;;7.40;5.53;;;;;;;;;;3572481;40;20374;-73
2021/07/07 04:55:18;;;;;;;4.55;4.15;;;;;;;;;;3556326;40;20395;-73
2021/07/07 04:57:44;;;;;;;5.30;4.63;;;;;;;;;;3571977;40;20812;-71
2021/07/07 05:00:11;;;;;;;4.88;4.47;;;;;;;;;;3570897;40;20371;-71
2021/07/07 05:02:38;;;;;;;4.57;4.07;;;;;;;;;;3568015;40;20417;-71
2021/07/07 05:05:06;;;;;;;3.80;3.50;;;;;;;;;;3574149;40;20419;-71
2021/07/07 05:07:33;;;;;;;5.57;4.30;;;;;;;;;;3562971;40;20394;-73
2021/07/07 05:09:59;;;;;;;4.63;4.23;;;;;;;;;;3567485;40;20382;-73
2021/07/07 05:12:26;;;;;;;4.80;3.30;;;;;;;;;;3569309;40;20401;-73
2021/07/07 05:14:52;;;;;;;4.80;4.30;;;;;;;;;;3572967;40;20387;-73
2021/07/07 05:17:19;;;;;;;3.40;3.20;;;;;;;;;;3563699;40;20729;-73
2021/07/07 05:19:46;;;;;;;3.50;3.20;;;;;;;;;;3569605;40;20646;-73
2021/07/07 05:22:13;;;;;;;4.30;4.00;;;;;;;;;;3564796;40;20419;-74
2021/07/07 05:24:39;;;;;;;3.45;3.20;;;;;;;;;;3575308;40;20782;-73
2021/07/07 05:27:06;;;;;;;4.15;3.40;;;;;;;;;;3576213;40;20383;-71
2021/07/07 05:29:32;;;;;;;6.88;4.30;;;;;;;;;;3567792;40;20385;-73
2021/07/07 05:31:58;;;;;;;3.40;3.10;;;;;;;;;;3570376;40;20504;-71
2021/07/07 05:34:25;;;;;;;3.45;3.15;;;;;;;;;;3568916;40;20382;-71
2021/07/07 05:36:51;;;;;;;3.85;3.45;;;;;;;;;;3570126;40;20385;-71
2021/07/07 05:39:19;;;;;;;3.67;3.25;;;;;;;;;;3568382;40;20408;-73
2021/07/07 05:41:48;;;;;;;3.65;3.20;;;;;;;;;;3570222;40;20476;-74
2021/07/07 05:44:14;;;;;;;6.30;3.88;;;;;;;;;;3574464;40;20658;-73
2021/07/07 05:46:40;;;;;;;8.55;3.60;;;;;;;;;;3563488;40;20670;-73
2021/07/07 05:49:06;;;;;;;8.93;4.38;;;;;;;;;;3574226;40;20368;-73
2021/07/07 05:51:33;;;;;;;6.43;3.90;;;;;;;;;;3572616;40;20736;-72
2021/07/07 05:53:59;;;;;;;7.72;4.60;;;;;;;;;;3573067;40;20776;-73
2021/07/07 05:56:26;;;;;;;4.80;4.30;;;;;;;;;;3571201;40;20386;-73
2021/07/07 05:58:52;;;;;;;4.88;4.38;;;;;;;;;;3559904;40;20393;-73
2021/07/07 06:01:19;;;;;;;4.32;3.80;;;;;;;;;;3572954;40;20444;-71
2021/07/07 06:03:45;;;;;;;4.57;3.75;;;;;;;;;;3570621;40;20407;-73
2021/07/07 06:06:11;;;;;;;5.32;4.28;;;;;;;;;;3570319;40;20397;-72
2021/07/07 06:08:37;;;;;;;4.68;4.20;;;;;;;;;;3572793;40;20399;-73
2021/07/07 06:11:03;;;;;;;4.83;4.03;;;;;;;;;;3564456;40;20437;-74
2021/07/07 06:13:32;;;;;;;4.28;3.88;;;;;;;;;;3576099;40;20400;-72
2021/07/07 06:15:58;;;;;;;5.63;4.55;;;;;;;;;;3567878;40;20388;-73
2021/07/07 06:18:24;;;;;;;5.10;4.57;;;;;;;;;;3569309;40;20507;-71
2021/07/07 06:20:51;;;;;;;4.38;3.97;;;;;;;;;;3570905;40;20777;-70
2021/07/07 06:23:17;;;;;;;4.93;3.80;;;;;;;;;;3561359;40;20775;-72
2021/07/07 06:25:43;;;;;;;7.22;3.47;;;;;;;;;;3564370;40;20386;-72
2021/07/07 06:28:09;;;;;;;4.68;4.18;;;20.70;99.90;;;;;;3557473;40;20624;-71
2021/07/07 06:30:36;;;;;;;3.88;3.58;;;23.90;99.90;;;;;;3563260;40;20412;-71
2021/07/07 06:33:03;;;;;;;4.32;3.55;;;22.70;99.90;;;;;;3556740;40;20785;-73
2021/07/07 06:35:31;;;;;;;8.63;5.75;;;22.70;99.90;;;;;;3565952;40;20811;-79
2021/07/07 06:37:58;;;;;;;6.93;4.83;;;22.80;99.90;;;;;;3570706;40;20421;-72
2021/07/07 06:40:24;;;;;;;4.82;4.35;;;22.80;99.90;;;;;;3565256;40;20411;-70
2021/07/07 06:42:51;;;;;;;4.57;3.90;;;22.80;99.90;;;;;;3564633;40;20458;-69
2021/07/07 06:45:18;;;;;;;4.20;3.80;;;22.80;99.90;;;;;;3568807;40;20678;-72
2021/07/07 06:47:45;;;;;;;4.10;3.50;;;22.70;99.90;;;;;;3565354;40;20418;-72
2021/07/07 06:50:13;;;;;;;10.32;5.00;;;22.70;99.90;;;;;;3565023;40;20472;-71
2021/07/07 06:52:40;;;;;;;8.23;5.20;;;22.70;99.90;;;;;;3563997;40;20500;-72
2021/07/07 06:55:08;;;;;;;4.22;3.78;;;22.70;99.90;;;;;;3556453;40;20501;-71
2021/07/07 06:57:34;;;;;;;3.45;3.15;;;22.60;99.90;;;;;;3565832;40;20797;-72
2021/07/07 07:00:01;;;;;;;3.30;3.00;;;22.60;99.90;;;;;;3565875;40;20374;-72
2021/07/07 07:02:30;;;;;;;3.20;2.90;;;22.60;99.90;;;;;;3567563;40;20431;-72
2021/07/07 07:04:58;;;;;;;4.30;3.90;;;22.60;99.90;;;;;;3571115;40;20386;-73
2021/07/07 07:07:24;;;;;;;3.83;3.30;;;22.70;99.90;;;;;;3570892;40;20406;-72
2021/07/07 07:09:50;;;;;;;3.72;3.40;;;22.70;99.90;;;;;;3581256;40;20414;-72
2021/07/07 07:12:16;;;;;;;4.77;4.20;;;22.70;99.90;;;;;;3568480;40;20419;-72
2021/07/07 07:14:42;;;;;;;5.88;4.07;;;22.70;99.90;;;;;;3580145;40;20897;-72
2021/07/07 07:17:08;;;;;;;5.57;4.20;;;22.60;99.90;;;;;;3578816;40;20414;-71
2021/07/07 07:19:34;;;;;;;3.75;3.40;;;22.50;99.90;;;;;;3578943;40;20458;-71
2021/07/07 07:22:01;;;;;;;7.47;4.00;;;22.50;99.90;;;;;;3570164;40;20660;-70
2021/07/07 07:24:30;;;;;;;2.63;2.42;;;22.60;99.90;;;;;;3571110;40;20757;-72
2021/07/07 07:26:56;;;;;;;3.78;3.22;;;22.60;99.90;;;;;;3570038;40;20397;-73
2021/07/07 07:29:22;;;;;;;4.35;3.05;;;22.70;99.90;;;;;;3563140;40;20492;-72
2021/07/07 07:31:48;;;;;;;4.07;3.20;;;22.90;99.90;;;;;;3581402;40;20407;-71
2021/07/07 07:34:15;;;;;;;4.67;3.40;;;23.00;99.90;;;;;;3580488;40;20459;-73
2021/07/07 07:36:42;;;;;;;3.78;3.47;;;;;;;;;;3571488;40;20415;-72
2021/07/07 07:39:11;;;;;;;5.97;3.03;;;;;;;;;;3568409;40;20443;-72
2021/07/07 07:41:38;;;;;;;5.13;3.70;;;;;;;;;;3580395;40;20434;-72
2021/07/07 07:44:07;;;;;;;3.30;3.10;;;;;;;;;;3580919;40;20656;-73
2021/07/07 07:46:34;;;;;;;4.28;3.88;;;;;;;;;;3569172;40;20539;-72
2021/07/07 07:49:01;;;;;;;4.82;3.20;;;23.00;99.90;;;;;;3580869;40;20382;-72
2021/07/07 07:51:27;;;;;;;4.45;3.22;;;23.60;99.90;;;;;;3580469;40;20394;-73
2021/07/07 07:53:53;;;;;;;4.72;2.90;;;23.70;99.90;;;;;;3579948;40;20489;-73
2021/07/07 07:56:20;;;;;;;6.68;3.20;;;23.80;99.90;;;;;;3581013;40;20777;-72
2021/07/07 07:58:47;;;;;;;5.05;3.33;;;23.80;99.90;;;;;;3580180;40;20767;-72
2021/07/07 08:01:13;;;;;;;3.13;2.83;;;23.80;99.90;;;;;;3580030;40;20812;-73
2021/07/07 08:03:39;;;;;;;4.15;3.60;;;;;;;;;;3568010;40;20468;-73
2021/07/07 08:06:06;;;;;;;4.20;3.77;;;;;;;;;;3569782;40;20399;-72
2021/07/07 08:08:32;;;;;;;3.92;3.33;;;23.90;99.90;;;;;;3568133;40;20407;-73
2021/07/07 08:10:58;;;;;;;2.60;2.40;;;;;;;;;;3570668;40;20426;-72
2021/07/07 08:13:25;;;;;;;4.20;2.40;;;;;;;;;;3569890;40;20433;-72
2021/07/07 08:15:52;;;;;;;5.53;2.78;;;24.00;99.90;;;;;;3562338;40;20412;-72
2021/07/07 08:18:18;;;;;;;4.18;2.75;;;24.50;99.90;;;;;;3570496;40;20408;-72
2021/07/07 08:20:44;;;;;;;5.95;2.80;;;;;;;;;;3569350;40;20428;-72
2021/07/07 08:23:11;;;;;;;4.35;2.80;;;;;;;;;;3568625;40;20397;-71
2021/07/07 08:25:38;;;;;;;3.80;2.60;;;;;;;;;;3567939;40;20377;-72
2021/07/07 08:28:04;;;;;;;3.15;2.50;;;;;;;;;;3568891;40;20384;-72
2021/07/07 08:30:31;;;;;;;6.40;3.13;;;;;;;;;;3571733;40;20399;-71
2021/07/07 08:32:58;;;;;;;4.47;2.80;;;;;;;;;;3572822;40;20501;-71
2021/07/07 08:35:24;;;;;;;3.88;3.42;;;;;;;;;;3571264;40;20404;-72
2021/07/07 08:37:50;;;;;;;4.33;2.70;;;;;;;;;;3569657;40;20758;-73
2021/07/07 08:40:17;;;;;;;2.80;2.60;;;;;;;;;;3569570;40;21036;-73
2021/07/07 08:42:44;;;;;;;2.45;2.22;;;;;;;;;;3569261;40;21697;-72
2021/07/07 08:45:11;;;;;;;2.63;2.13;;;;;;;;;;3572996;40;20683;-73
2021/07/07 08:47:41;;;;;;;2.55;2.25;;;;;;;;;;3575008;40;20391;-72
2021/07/07 08:50:07;;;;;;;3.40;2.10;;;;;;;;;;3570169;40;20483;-72
2021/07/07 08:52:34;;;;;;;3.90;2.40;;;;;;;;;;3570216;40;20486;-72
2021/07/07 08:55:00;;;;;;;3.05;1.80;;;;;;;;;;3571011;40;20389;-74
2021/07/07 08:57:27;;;;;;;1.93;1.70;;;;;;;;;;3570977;40;20783;-73
2021/07/07 08:59:54;;;;;;;4.40;1.77;;;;;;;;;;3571041;40;20455;-73
2021/07/07 09:02:20;;;;;;;3.17;2.00;;;;;;;;;;3553852;40;20426;-72
2021/07/07 09:04:48;;;;;;;2.70;1.77;;;;;;;;;;3569291;40;20380;-72
2021/07/07 09:07:15;;;;;;;2.65;1.88;;;;;;;;;;3567931;40;20497;-73
2021/07/07 09:09:42;;;;;;;2.10;1.85;;;;;;;;;;3572297;40;20378;-72
2021/07/07 09:12:12;;;;;;;2.20;2.00;;;;;;;;;;3567927;40;20382;-73
2021/07/07 09:14:39;;;;;;;1.98;1.67;;;;;;;;;;3569597;40;20382;-72
2021/07/07 09:17:10;;;;;;;2.80;1.73;;;;;;;;;;3572462;40;20417;-73
2021/07/07 09:19:38;;;;;;;2.90;1.90;;;;;;;;;;3566426;40;20361;-72
2021/07/07 09:22:07;;;;;;;2.15;1.60;;;;;;;;;;3570013;40;20882;-71
2021/07/07 09:24:34;;;;;;;1.83;1.40;;;24.50;99.90;;;;;;3569767;40;20901;-72
2021/07/07 09:27:03;;;;;;;1.70;1.60;;;25.70;99.90;;;;;;3570016;40;20489;-72
2021/07/07 09:29:33;;;;;;;1.73;1.50;;;;;;;;;;3567434;40;20421;-73
2021/07/07 09:31:59;;;;;;;2.50;1.70;;;;;;;;;;3569518;40;20401;-72
2021/07/07 09:34:25;;;;;;;1.70;1.30;;;;;;;;;;3570411;40;20380;-72
2021/07/07 09:36:53;;;;;;;1.70;1.38;;;;;;;;;;3569239;40;20529;-71
2021/07/07 09:39:21;;;;;;;2.25;1.30;;;;;;;;;;3571593;40;20663;-74
2021/07/07 09:41:49;;;;;;;2.60;1.30;;;;;;;;;;3572775;40;20395;-74
2021/07/07 09:44:18;;;;;;;1.30;1.00;;;;;;;;;;3576509;40;20533;-72
2021/07/07 09:46:44;;;;;;;2.65;1.10;;;;;;;;;;3572128;40;20453;-71
2021/07/07 09:49:11;;;;;;;2.40;1.23;;;;;;;;;;3571617;40;20782;-73
2021/07/07 09:51:37;;;;;;;3.13;1.30;;;;;;;;;;3571903;40;20422;-73
2021/07/07 09:54:04;;;;;;;2.00;1.20;;;;;;;;;;3573330;40;20670;-73
2021/07/07 09:56:32;;;;;;;1.98;1.40;;;;;;;;;;3570671;40;20482;-74
2021/07/07 09:58:59;;;;;;;1.75;1.20;;;;;;;;;;3571354;40;20408;-74
2021/07/07 10:01:25;;;;;;;2.40;1.30;;;;;;;;;;3571144;40;21402;-73
2021/07/07 10:03:52;;;;;;;1.85;1.60;;;;;;;;;;3575594;40;20419;-72
2021/07/07 10:06:21;;;;;;;6.60;1.47;;;;;;;;;;3578160;40;20785;-74
2021/07/07 10:08:47;;;;;;;1.85;1.23;;;;;;;;;;3579384;40;20719;-74
2021/07/07 10:11:15;;;;;;;1.95;1.38;;;;;;;;;;3577255;40;20399;-74
2021/07/07 10:13:42;;;;;;;2.03;1.23;;;;;;;;;;3577366;40;20769;-73
2021/07/07 10:16:09;;;;;;;2.22;1.33;;;;;;;;;;3566336;40;20407;-74
2021/07/07 10:18:35;;;;;;;2.80;1.70;;;;;;;;;;3567553;40;20788;-73
2021/07/07 10:21:02;;;;;;;2.90;1.60;;;28.60;96.60;;;;;;3579045;40;20404;-73
2021/07/07 10:23:32;;;;;;;2.27;1.40;;;28.70;95.00;;;;;;3566722;40;20672;-73
2021/07/07 10:25:59;;;;;;;2.17;1.50;;;28.80;94.50;;;;;;3579885;40;20374;-73
2021/07/07 10:28:26;;;;;;;2.05;1.55;;;;;;;;;;3576684;40;20760;-72
2021/07/07 10:30:55;;;;;;;2.13;1.48;;;;;;;;;;3579409;40;20792;-73
2021/07/07 10:33:22;;;;;;;2.63;1.52;;;;;;;;;;3579194;40;20394;-73
2021/07/07 10:35:49;;;;;;;2.17;1.30;;;;;;;;;;3580032;40;20769;-73
2021/07/07 10:38:16;;;;;;;2.55;1.25;;;;;;;;;;3578633;40;20455;-72
2021/07/07 10:40:51;;;;;;;1.50;1.20;;;;;;;;;;3576362;40;20400;-72
2021/07/07 10:43:24;;;;;;;3.40;1.23;;;;;;;;;;3578090;40;20379;-74
2021/07/07 10:45:50;;;;;;;1.90;1.23;;;;;;;;;;3566831;40;20409;-72
2021/07/07 10:48:25;;;;;;;2.35;1.20;;;;;;;;;;3567135;40;20772;-72
2021/07/07 10:50:52;;;;;;;2.05;1.20;;;;;;;;;;3579434;40;20399;-74
2021/07/07 10:53:22;;;;;;;1.58;1.00;;;;;;;;;;3581553;40;20641;-72
2021/07/07 10:55:48;;;;;;;2.47;1.20;;;;;;;;;;3578621;40;20371;-73
2021/07/07 10:58:22;;;;;;;1.60;1.10;;;;;;;;;;3576347;40;20402;-73
2021/07/07 11:00:49;;;;;;;2.35;1.02;;;;;;;;;;3579310;40;20359;-73
2021/07/07 11:03:19;;;;;;;1.42;1.13;;;;;;;;;;3569571;40;20534;-72
2021/07/07 11:05:47;;;;;;;2.10;1.33;;;;;;;;;;3579410;40;20380;-72
2021/07/07 11:08:17;;;;;;;2.03;1.20;;;;;;;;;;3575647;40;20762;-72
2021/07/07 11:10:53;;;;;;;1.63;1.17;;;;;;;;;;3568869;40;20403;-72
2021/07/07 11:13:19;;;;;;;1.80;1.10;;;;;;;;;;3580209;40;20359;-71
2021/07/07 11:15:47;;;;;;;1.40;1.00;;;;;;;;;;3577613;40;20475;-72
2021/07/07 11:18:17;;;;;;;1.50;1.20;;;;;;;;;;3577901;40;20392;-72
2021/07/07 11:20:44;;;;;;;2.17;1.45;;;;;;;;;;3581363;40;20378;-72
2021/07/07 11:23:12;;;;;;;1.90;1.20;;;;;;;;;;3581295;40;20393;-72
2021/07/07 11:25:39;;;;;;;2.28;1.23;;;;;;;;;;3576251;40;20396;-73
2021/07/07 11:28:06;;;;;;;1.73;1.35;;;;;;;;;;3577563;40;20463;-73
2021/07/07 11:30:32;;;;;;;2.72;1.27;;;;;;;;;;3580498;40;20468;-70
2021/07/07 11:33:06;;;;;;;1.52;1.23;;;;;;;;;;3576974;40;20406;-71
2021/07/07 11:35:33;;;;;;;1.30;1.20;;;;;;;;;;3576374;40;21056;-73
2021/07/07 11:38:00;;;;;;;2.15;1.30;;;;;;;;;;3579134;40;20479;-72
2021/07/07 11:40:30;;;;;;;5.00;1.40;;;;;;;;;;3577871;40;20406;-72
2021/07/07 11:42:57;;;;;;;2.40;1.30;;;;;;;;;;3575913;40;20447;-72
2021/07/07 11:45:25;;;;;;;2.50;1.23;;;;;;;;;;3579049;40;20763;-72
2021/07/07 11:47:53;;;;;;;2.65;1.10;;;;;;;;;;3580827;40;20404;-73
2021/07/07 11:50:20;;;;;;;1.80;0.90;;;;;;;;;;3565519;40;20459;-73
2021/07/07 11:52:56;;;;;;;2.72;1.08;;;;;;;;;;3579894;40;20769;-73
2021/07/07 11:55:37;;;;;;;2.70;1.13;;;;;;;;;;3581198;40;20471;-71
2021/07/07 11:58:05;;;;;;;2.75;1.10;;;;;;;;;;3574362;40;20416;-72
2021/07/07 12:00:35;;;;;;;2.10;0.95;;;;;;;;;;3579432;40;20407;-72
2021/07/07 12:03:02;;;;;;;1.53;0.90;;;;;;;;;;3578025;40;20418;-73
2021/07/07 12:05:28;;;;;;;2.30;1.10;;;;;;;;;;3579097;40;20392;-73
2021/07/07 12:08:12;;;;;;;1.60;1.00;;;;;;;;;;3577637;40;20738;-71
2021/07/07 12:10:38;;;;;;;2.28;0.93;;;;;;;;;;3579926;40;20800;-73
2021/07/07 12:13:19;;;;;;;3.13;1.17;;;;;;;;;;3564986;40;20770;-73
2021/07/07 12:15:47;;;;;;;1.90;0.82;;;;;;;;;;3568157;40;20507;-72
2021/07/07 12:18:22;;;;;;;1.50;1.00;;;;;;;;;;3577659;40;20977;-74
2021/07/07 12:20:48;;;;;;;1.92;0.90;;;;;;;;;;3577828;40;20375;-73
2021/07/07 12:23:14;;;;;;;1.92;1.20;;;;;;;;;;3579053;40;20390;-73
2021/07/07 12:25:41;;;;;;;0.95;0.80;;;;;;;;;;3567669;40;20495;-72
2021/07/07 12:28:08;;;;;;;3.58;1.10;;;;;;;;;;3580731;40;20384;-73
2021/07/07 12:30:34;;;;;;;1.80;1.00;;;;;;;;;;3571397;40;20420;-73
2021/07/07 12:33:02;;;;;;;2.90;0.98;;;30.10;90.10;;;;;;3579596;40;20396;-74
2021/07/07 12:35:28;;;;;;;1.52;0.80;;;30.30;90.30;;;;;;3577576;40;20396;-73
2021/07/07 12:37:54;;;;;;;1.23;0.82;;;30.30;90.90;;;;;;3563580;40;20420;-73
2021/07/07 12:40:23;;;;;;;1.55;0.90;;;30.30;89.20;;;;;;3567847;40;20403;-73
2021/07/07 12:42:53;;;;;;;2.33;1.00;;;;;;;;;;3558559;40;20655;-71
2021/07/07 12:45:19;;;;;;;1.90;0.90;;;;;;;;;;3568280;40;20378;-72
2021/07/07 12:48:02;;;;;;;2.65;1.10;;;;;;;;;;3577684;40;20418;-72
2021/07/07 12:50:33;;;;;;;2.63;0.93;;;30.50;89.40;;;;;;3577019;40;20372;-73
2021/07/07 12:52:59;;;;;;;1.20;0.80;;;30.80;87.70;;;;;;3575087;40;20432;-72
2021/07/07 12:55:26;;;;;;;2.92;1.00;;;30.70;87.60;;;;;;3577665;40;20415;-72
2021/07/07 12:58:02;;;;;;;1.50;0.80;;;;;;;;;;3578442;40;20408;-71
2021/07/07 13:00:45;;;;;;;3.35;1.17;;;;;;;;;;3580661;40;20371;-72
2021/07/07 13:03:12;;;;;;;1.77;0.90;;;;;;;;;;3577589;40;20396;-73
2021/07/07 13:05:41;;;;;;;2.20;0.80;;;30.50;86.30;;;;;;3581539;40;20382;-73
2021/07/07 13:08:08;;;;;;;2.03;1.05;;;;;;;;;;3578971;40;20423;-73
2021/07/07 13:10:36;;;;;;;1.60;0.80;;;;;;;;;;3577214;40;20501;-72
2021/07/07 13:13:18;;;;;;;3.33;0.90;;;;;;;;;;3581331;40;20788;-73
2021/07/07 13:15:59;;;;;;;2.15;1.08;;;30.30;85.00;;;;;;3581470;40;20390;-72
2021/07/07 13:18:25;;;;;;;2.42;0.80;;;;;;;;;;3570893;40;20410;-71
2021/07/07 13:20:58;;;;;;;1.60;0.80;;;;;;;;;;3582262;40;20399;-72
2021/07/07 13:23:25;;;;;;;3.00;0.80;;;30.00;87.00;;;;;;3581553;40;20378;-74
2021/07/07 13:25:51;;;;;;;2.10;0.90;;;30.50;88.00;;;;;;3582219;40;20512;-73
2021/07/07 13:28:26;;;;;;;1.00;0.77;;;;;;;;;;3580620;40;20422;-73
2021/07/07 13:30:52;;;;;;;1.17;0.70;;;;;;;;;;3582456;40;20358;-73
2021/07/07 13:33:19;;;;;;;1.95;0.80;;;;;;;;;;3571936;40;20416;-73
2021/07/07 13:35:45;;;;;;;1.73;0.93;;;;;;;;;;3564299;40;20830;-73
2021/07/07 13:38:12;;;;;;;4.70;0.90;;;;;;;;;;3581839;40;20570;-74
2021/07/07 13:40:39;;;;;;;2.17;0.80;;;;;;;;;;3572383;40;20406;-74
2021/07/07 13:43:05;;;;;;;3.00;1.20;;;;;;;;;;3581974;40;20416;-74
2021/07/07 13:45:31;;;;;;;1.58;0.82;;;;;;;;;;3582778;40;20396;-73
2021/07/07 13:47:57;;;;;;;1.77;0.95;;;30.60;86.50;;;;;;3581693;40;20499;-73
2021/07/07 13:50:23;;;;;;;3.60;0.95;;;;;;;;;;3580794;40;20406;-72
2021/07/07 13:52:49;;;;;;;2.03;1.00;;;;;;;;;;3581685;40;20367;-71
2021/07/07 13:55:16;;;;;;;3.23;1.10;;;;;;;;;;3580968;40;20413;-71
2021/07/07 13:57:42;;;;;;;3.08;1.40;;;31.20;83.90;;;;;;3581421;40;20759;-73
2021/07/07 14:00:10;;;;;;;3.42;1.80;;;29.40;88.30;;;;;;3571375;40;20631;-73
2021/07/07 14:02:36;;;;;;;2.53;1.33;;;29.10;89.00;;;;;;3579984;40;20656;-73
2021/07/07 14:05:02;;;;;;;1.97;1.20;;;29.30;89.20;;;;;;3576384;40;20392;-74
2021/07/07 14:07:28;;;;;;;4.22;1.35;;;29.20;89.50;;;;;;3576499;40;20422;-74
2021/07/07 14:09:54;;;;;;;5.30;1.58;;;29.00;90.20;;;;;;3577113;40;20445;-72
2021/07/07 14:12:21;;;;;;;2.42;1.30;;;29.10;88.70;;;;;;3571070;40;20384;-73
2021/07/07 14:14:47;;;;;;;3.40;1.30;;;;;;;;;;3577700;40;20392;-73
2021/07/07 14:17:13;;;;;;;3.87;1.10;;;29.10;90.80;;;;;;3571317;40;20451;-73
2021/07/07 14:19:40;;;;;;;2.00;1.20;;;;;;;;;;3563610;40;20412;-73